Time;durP1;ratioP1;P1;durP2;ratioP2;P2;SDS_P1;SDS_P2;PMS_P1;PMS_P2;Temp;Humidity;BMP_temperature;BMP_pressure;BME280_temperature;BME280_humidity;BME280_pressure;Samples;Min_cycle;Max_cycle;Signal;HPM_P1;HPM_P2
2023/01/29 00:02:00;;;;;;;;;;;;;;;-0.58;100.00;101419.16;5010306;28;19925;-57
2023/01/29 00:04:26;;;;;;;;;;;;;;;-0.67;100.00;101424.94;5043396;28;19978;-56
2023/01/29 00:06:51;;;;;;;;;;;;;;;-0.69;100.00;101424.94;5043292;28;19924;-56
2023/01/29 00:09:16;;;;;;;;;;;;;;;-0.66;100.00;101422.47;5051908;28;19916;-56
2023/01/29 00:11:41;;;;;;;;;;;;;;;-0.71;100.00;101428.28;5028210;28;20287;-56
2023/01/29 00:14:07;;;;;;;;;;;;;;;-0.65;100.00;101426.66;5039423;28;19923;-56
2023/01/29 00:16:32;;;;;;;;;;;;;;;-0.70;100.00;101417.34;5030426;28;19952;-56
2023/01/29 00:18:57;;;;;;;;;;;;;;;-0.57;100.00;101420.88;5041499;28;20008;-56
2023/01/29 00:21:23;;;;;;;;;;;;;;;-0.60;100.00;101433.47;5021765;28;20019;-56
2023/01/29 00:23:49;;;;;;;;;;;;;;;-0.56;100.00;101435.22;5044183;28;19967;-56
2023/01/29 00:26:15;;;;;;;;;;;;;;;-0.54;100.00;101433.56;5050293;28;19952;-56
2023/01/29 00:28:40;;;;;;;;;;;;;;;-0.48;100.00;101441.22;5051508;28;19927;-57
2023/01/29 00:31:09;;;;;;;;;;;;;;;-0.53;100.00;101446.22;5038641;28;19920;-57
2023/01/29 00:33:34;;;;;;;;;;;;;;;-0.64;100.00;101452.81;5048628;28;19948;-56
2023/01/29 00:36:04;;;;;;;;;;;;;;;-0.60;100.00;101446.13;5050661;28;19967;-55
2023/01/29 00:38:29;;;;;;;;;;;;;;;-0.53;100.00;101451.28;5033419;28;19921;-56
2023/01/29 00:46:22;;;;;;;;;;;;;;;-0.71;100.00;101443.44;5048444;28;19924;-56
2023/01/29 00:48:47;;;;;;;;;;;;;;;-0.71;100.00;101431.66;5051227;28;20304;-56
2023/01/29 00:51:12;;;;;;;;;;;;;;;-0.79;100.00;101435.75;5036774;28;19931;-56
2023/01/29 00:53:37;;;;;;;;;;;;;;;-0.71;100.00;101438.38;5047198;28;20283;-56
2023/01/29 00:56:03;;;;;;;;;;;;;;;-0.61;100.00;101434.31;5023171;28;20020;-56
2023/01/29 00:58:33;;;;;;;;;;;;;;;-0.60;100.00;101436.84;5045095;28;20296;-56
2023/01/29 01:00:59;;;;;;;;;;;;;;;-0.70;100.00;101435.88;5040856;28;19921;-56
2023/01/29 01:03:25;;;;;;;;;;;;;;;-0.66;100.00;101426.66;5029166;28;19996;-55
2023/01/29 01:06:00;;;;;;;;;;;;;;;-0.55;100.00;101434.38;5053454;28;19927;-56
2023/01/29 01:11:10;;;;;;;;;;;;;;;-0.50;100.00;101438.69;5043461;28;19978;-55
2023/01/29 01:13:35;;;;;;;;;;;;;;;-0.44;100.00;101422.72;5035431;28;19924;-55
2023/01/29 01:16:00;;;;;;;;;;;;;;;-0.43;100.00;101418.53;5053763;28;19921;-55
2023/01/29 01:18:28;;;;;;;;;;;;;;;-0.51;100.00;101418.41;5054446;28;20012;-57
2023/01/29 01:20:58;;;;;;;;;;;;;;;-0.39;100.00;101412.69;5036837;28;19921;-56
2023/01/29 01:23:23;;;;;;;;;;;;;;;-0.42;100.00;101407.56;5035804;28;20395;-55
2023/01/29 01:25:48;;;;;;;;;;;;;;;-0.36;100.00;101405.97;5054001;28;20005;-56
2023/01/29 01:28:14;;;;;;;;;;;;;;;-0.38;100.00;101407.63;5053719;28;19923;-55
2023/01/29 01:30:39;;;;;;;;;;;;;;;-0.36;100.00;101411.03;5043761;28;19925;-56
2023/01/29 01:33:04;;;;;;;;;;;;;;;-0.37;100.00;101396.69;5052297;28;19916;-56
2023/01/29 01:35:29;;;;;;;;;;;;;;;-0.42;100.00;101394.94;5054521;28;19927;-55
2023/01/29 01:37:55;;;;;;;;;;;;;;;-0.57;100.00;101401.50;5053259;28;19924;-55
2023/01/29 01:40:21;;;;;;;;;;;;;;;-0.58;100.00;101396.41;5043683;28;20447;-56
2023/01/29 01:42:48;;;;;;;;;;;;;;;-0.63;100.00;101395.53;5052755;28;20279;-56
2023/01/29 01:45:25;;;;;;;;;;;;;;;-0.72;100.00;101392.06;5032714;28;20015;-56
2023/01/29 01:48:11;;;;;;;;;;;;;;;-0.68;100.00;101388.75;5049452;28;19925;-56
2023/01/29 01:50:41;;;;;;;;;;;;;;;-0.62;100.00;101384.59;5022340;28;20003;-56
2023/01/29 01:53:09;;;;;;;;;;;;;;;-0.60;100.00;101371.13;5035799;28;20418;-56
2023/01/29 01:55:36;;;;;;;;;;;;;;;-0.56;100.00;101364.44;5032762;28;20039;-56
2023/01/29 01:58:05;;;;;;;;;;;;;;;-0.50;100.00;101367.03;5046666;28;19917;-56
2023/01/29 02:00:30;;;;;;;;;;;;;;;-0.49;100.00;101367.03;5035052;28;20383;-55
2023/01/29 02:11:12;;;;;;;;;;;;;;;-0.57;100.00;101360.22;5042167;28;19971;-56
2023/01/29 02:13:38;;;;;;;;;;;;;;;-0.67;100.00;101354.19;5053159;28;19920;-55
2023/01/29 02:16:03;;;;;;;;;;;;;;;-0.83;100.00;101358.25;5033205;28;20335;-56
2023/01/29 02:18:28;;;;;;;;;;;;;;;-0.72;100.00;101355.81;5053181;28;20020;-55
2023/01/29 02:21:14;;;;;;;;;;;;;;;-0.70;100.00;101365.13;5041918;28;19955;-56
2023/01/29 02:24:02;;;;;;;;;;;;;;;-0.69;100.00;101369.34;5052488;28;19917;-55
2023/01/29 02:26:39;;;;;;;;;;;;;;;-0.64;100.00;101361.81;5031264;28;19921;-55
2023/01/29 02:29:21;;;;;;;;;;;;;;;-0.75;100.00;101364.22;5050200;28;19917;-56
2023/01/29 02:32:09;;;;;;;;;;;;;;;-0.72;100.00;101364.28;5040061;28;19925;-56
2023/01/29 02:37:38;;;;;;;;;;;;;;;-0.59;100.00;101367.78;5052661;28;19924;-56
2023/01/29 02:40:11;;;;;;;;;;;;;;;-0.54;100.00;101383.00;5025297;28;19967;-56
2023/01/29 02:42:47;;;;;;;;;;;;;;;-0.56;100.00;101387.19;5034544;28;20046;-56
2023/01/29 02:45:17;;;;;;;;;;;;;;;-0.60;100.00;101385.47;5034859;28;19917;-55
2023/01/29 02:47:59;;;;;;;;;;;;;;;-0.55;100.00;101384.66;5034290;28;19924;-56
2023/01/29 02:50:24;;;;;;;;;;;;;;;-0.56;100.00;101389.72;5030838;28;19925;-55
2023/01/29 02:52:55;;;;;;;;;;;;;;;-0.60;100.00;101406.53;5050776;28;19917;-56
2023/01/29 02:55:36;;;;;;;;;;;;;;;-0.79;100.00;101402.91;5034761;28;20291;-56
2023/01/29 02:58:22;;;;;;;;;;;;;;;-0.86;100.00;101404.50;5027922;28;19917;-56
2023/01/29 03:00:48;;;;;;;;;;;;;;;-0.77;100.00;101406.31;5036791;28;19921;-55
2023/01/29 03:03:16;;;;;;;;;;;;;;;-0.67;100.00;101407.25;5051888;28;20016;-56
2023/01/29 03:05:53;;;;;;;;;;;;;;;-0.64;100.00;101399.75;5052338;28;19921;-56
2023/01/29 03:08:36;;;;;;;;;;;;;;;-0.61;100.00;101389.66;5034405;28;19917;-55
2023/01/29 03:11:05;;;;;;;;;;;;;;;-0.63;100.00;101377.81;5020620;28;19931;-56
2023/01/29 03:13:42;;;;;;;;;;;;;;;-0.62;100.00;101377.00;5043297;28;19917;-56
2023/01/29 03:16:10;;;;;;;;;;;;;;;-0.73;100.00;101375.19;5040480;28;19967;-55
2023/01/29 03:18:42;;;;;;;;;;;;;;;-0.79;100.00;101380.19;5052153;28;19924;-56
2023/01/29 03:21:49;;;;;;;;;;;;;;;-0.69;100.00;101381.16;5023261;28;19921;-55
2023/01/29 03:32:10;;;;;;;;;;;;;;;-0.73;100.00;101390.38;5040125;28;19931;-56
2023/01/29 03:34:40;;;;;;;;;;;;;;;-0.80;100.00;101400.38;5052034;28;19921;-56
2023/01/29 03:37:19;;;;;;;;;;;;;;;-0.71;100.00;101408.06;5034920;28;20016;-57
2023/01/29 03:39:44;;;;;;;;;;;;;;;-0.65;100.00;101403.91;5047813;28;19917;-55
2023/01/29 03:42:10;;;;;;;;;;;;;;;-0.58;100.00;101406.53;5022428;28;19925;-56
2023/01/29 03:44:44;;;;;;;;;;;;;;;-0.57;100.00;101400.66;5051938;28;19927;-56
2023/01/29 03:47:27;;;;;;;;;;;;;;;-0.60;100.00;101396.41;5051526;28;19962;-56
2023/01/29 03:50:09;;;;;;;;;;;;;;;-0.63;100.00;101391.34;5051436;28;19959;-56
2023/01/29 03:52:35;;;;;;;;;;;;;;;-0.61;100.00;101394.69;5007172;28;19970;-56
2023/01/29 03:55:00;;;;;;;;;;;;;;;-0.63;100.00;101385.41;5051841;28;19921;-56
2023/01/29 03:57:44;;;;;;;;;;;;;;;-0.62;100.00;101382.06;5050248;28;19959;-55
2023/01/29 04:00:39;;;;;;;;;;;;;;;-0.63;100.00;101386.28;5020493;28;20450;-55
2023/01/29 04:03:11;;;;;;;;;;;;;;;-0.70;100.00;101408.06;4939978;28;19918;-55
2023/01/29 04:05:40;;;;;;;;;;;;;;;-0.73;100.00;101402.13;4951386;29;19973;-56
2023/01/29 04:08:09;;;;;;;;;;;;;;;-0.78;100.00;101399.56;4956068;28;19926;-56
2023/01/29 04:10:35;;;;;;;;;;;;;;;-0.75;100.00;101402.13;4922413;29;19926;-55
2023/01/29 04:13:03;;;;;;;;;;;;;;;-0.74;100.00;101397.94;4924059;29;19958;-56
2023/01/29 04:15:30;;;;;;;;;;;;;;;-0.88;100.00;101390.16;4941334;28;19931;-56
2023/01/29 04:17:55;;;;;;;;;;;;;;;-0.91;100.00;101380.00;4950726;29;20330;-55
2023/01/29 04:20:21;;;;;;;;;;;;;;;-0.99;100.00;101369.81;4941272;28;19931;-56
2023/01/29 04:22:48;;;;;;;;;;;;;;;-1.08;100.00;101368.00;4951437;28;19918;-56
2023/01/29 04:25:25;;;;;;;;;;;;;;;-1.11;100.00;101364.59;4951141;29;20103;-56
2023/01/29 04:27:59;;;;;;;;;;;;;;;-1.02;100.00;101369.75;4934596;29;19969;-57
2023/01/29 04:30:34;;;;;;;;;;;;;;;-0.98;100.00;101363.91;4941396;28;19926;-55
2023/01/29 04:33:07;;;;;;;;;;;;;;;-0.93;100.00;101363.97;4954782;28;20009;-58
2023/01/29 04:35:54;;;;;;;;;;;;;;;-1.01;100.00;101369.78;4954934;29;20433;-56
2023/01/29 04:38:41;;;;;;;;;;;;;;;-1.02;100.00;101372.28;4957751;28;20315;-56
2023/01/29 04:41:13;;;;;;;;;;;;;;;-1.04;100.00;101366.34;5017669;28;19928;-56
2023/01/29 04:43:38;;;;;;;;;;;;;;;-1.01;100.00;101371.47;5040633;28;20253;-56
2023/01/29 04:46:14;;;;;;;;;;;;;;;-0.93;100.00;101377.47;5028712;28;19917;-56
2023/01/29 04:48:39;;;;;;;;;;;;;;;-0.98;100.00;101384.97;5044398;28;19970;-55
2023/01/29 04:51:16;;;;;;;;;;;;;;;-1.01;100.00;101376.50;5042802;28;19921;-56
2023/01/29 04:53:41;;;;;;;;;;;;;;;-1.17;100.00;101378.81;5054827;28;19991;-57
2023/01/29 04:56:11;;;;;;;;;;;;;;;-1.30;100.00;101384.53;5054178;28;20376;-56
2023/01/29 04:58:39;;;;;;;;;;;;;;;-1.32;100.00;101379.44;5044332;28;20020;-56
2023/01/29 05:01:05;;;;;;;;;;;;;;;-1.34;100.00;101372.66;5037509;28;19921;-56
2023/01/29 05:03:31;;;;;;;;;;;;;;;-1.44;100.00;101384.28;5045606;28;19920;-56
2023/01/29 05:05:59;;;;;;;;;;;;;;;-1.49;100.00;101379.19;5053842;28;19924;-56
2023/01/29 05:08:26;;;;;;;;;;;;;;;-1.54;100.00;101379.94;5054522;28;20333;-55
2023/01/29 05:10:52;;;;;;;;;;;;;;;-1.48;100.00;101388.47;5026193;28;19924;-56
2023/01/29 05:13:19;;;;;;;;;;;;;;;-1.50;100.00;101384.19;5053995;28;19917;-55
2023/01/29 05:15:51;;;;;;;;;;;;;;;-1.47;100.00;101395.19;5053931;28;19917;-56
2023/01/29 05:18:17;;;;;;;;;;;;;;;-1.51;100.00;101387.56;5036697;28;19921;-56
2023/01/29 05:20:43;;;;;;;;;;;;;;;-1.48;100.00;101388.47;5043556;28;20037;-56
2023/01/29 05:23:15;;;;;;;;;;;;;;;-1.51;100.00;101380.84;5036358;28;20015;-56
2023/01/29 05:25:40;;;;;;;;;;;;;;;-1.52;100.00;101380.81;5054043;28;20384;-55
2023/01/29 05:28:18;;;;;;;;;;;;;;;-1.39;100.00;101376.78;5053615;28;19927;-55
2023/01/29 05:30:46;;;;;;;;;;;;;;;-1.42;100.00;101369.19;5044087;28;19928;-56
2023/01/29 05:33:22;;;;;;;;;;;;;;;-1.50;100.00;101361.47;5052542;28;19924;-56
2023/01/29 05:35:48;;;;;;;;;;;;;;;-1.55;100.00;101355.50;5033066;28;20391;-59
2023/01/29 05:38:13;;;;;;;;;;;;;;;-1.62;100.00;101354.59;5049982;28;19925;-55
2023/01/29 05:40:38;;;;;;;;;;;;;;;-1.64;100.00;101358.75;5043592;28;19928;-57
2023/01/29 05:43:04;;;;;;;;;;;;;;;-1.76;100.00;101366.13;5050832;28;19923;-55
2023/01/29 05:45:29;;;;;;;;;;;;;;;-1.82;100.00;101374.44;5033027;28;20352;-55
2023/01/29 05:47:56;;;;;;;;;;;;;;;-1.74;100.00;101377.09;5048963;28;19971;-56
2023/01/29 05:50:21;;;;;;;;;;;;;;;-1.69;100.00;101370.44;5022460;28;19994;-56
2023/01/29 05:52:46;;;;;;;;;;;;;;;-1.66;100.00;101373.88;5038837;28;20011;-56
2023/01/29 05:55:12;;;;;;;;;;;;;;;-1.62;100.00;101380.66;5053955;28;20402;-56
2023/01/29 05:57:38;;;;;;;;;;;;;;;-1.58;100.00;101388.28;5050265;28;19964;-55
2023/01/29 06:00:04;;;;;;;;;;;;;;;-1.56;100.00;101386.63;5034311;28;19963;-55
2023/01/29 06:02:30;;;;;;;;;;;;;;;-1.53;100.00;101386.69;5052394;28;19932;-55
2023/01/29 06:04:55;;;;;;;;;;;;;;;-1.57;100.00;101372.31;5032538;28;19917;-55
2023/01/29 06:07:20;;;;;;;;;;;;;;;-1.50;100.00;101380.00;5048664;28;19932;-56
2023/01/29 06:09:46;;;;;;;;;;;;;;;-1.52;100.00;101385.88;5053645;28;19921;-56
2023/01/29 06:12:11;;;;;;;;;;;;;;;-1.58;100.00;101386.59;5041416;28;19929;-56
2023/01/29 06:14:37;;;;;;;;;;;;;;;-1.58;100.00;101390.81;5031793;28;19921;-56
2023/01/29 06:17:02;;;;;;;;;;;;;;;-1.62;100.00;101383.16;5036715;28;19974;-56
2023/01/29 06:19:27;;;;;;;;;;;;;;;-1.53;100.00;101381.63;5053307;28;20039;-56
2023/01/29 06:21:52;;;;;;;;;;;;;;;-1.49;100.00;101376.66;5028733;28;19925;-56
2023/01/29 06:24:17;;;;;;;;;;;;;;;-1.47;100.00;101379.22;5041820;28;19928;-56
2023/01/29 06:26:43;;;;;;;;;;;;;;;-1.48;100.00;101380.03;5052019;28;19924;-55
2023/01/29 06:29:08;;;;;;;;;;;;;;;-1.48;100.00;101369.94;5053306;28;19916;-55
2023/01/29 06:31:33;;;;;;;;;;;;;;;-1.52;100.00;101366.50;5040527;28;19921;-55
2023/01/29 06:33:58;;;;;;;;;;;;;;;-1.60;100.00;101363.03;5052545;28;20015;-55
2023/01/29 06:36:23;;;;;;;;;;;;;;;-1.62;100.00;101364.66;5051597;28;19917;-55
2023/01/29 06:38:49;;;;;;;;;;;;;;;-1.56;100.00;101364.78;5053040;28;19990;-55
2023/01/29 06:41:16;;;;;;;;;;;;;;;-1.53;100.00;101359.75;5040523;28;20474;-57
2023/01/29 06:43:42;;;;;;;;;;;;;;;-1.46;100.00;101368.28;5033962;28;19926;-56
2023/01/29 06:46:08;;;;;;;;;;;;;;;-1.52;100.00;101360.63;5034367;28;19920;-56
2023/01/29 06:48:33;;;;;;;;;;;;;;;-1.63;100.00;101362.97;5052823;28;19923;-55
2023/01/29 06:51:02;;;;;;;;;;;;;;;-1.57;100.00;101362.22;5040552;28;20368;-57
2023/01/29 06:53:27;;;;;;;;;;;;;;;-1.54;100.00;101360.59;5052095;28;19927;-56
2023/01/29 06:55:53;;;;;;;;;;;;;;;-1.53;100.00;101367.31;5051347;28;19999;-56
2023/01/29 06:58:18;;;;;;;;;;;;;;;-1.54;100.00;101368.19;5044686;28;20011;-56
2023/01/29 07:00:44;;;;;;;;;;;;;;;-1.56;100.00;101368.94;5023893;28;19920;-56
2023/01/29 07:03:09;;;;;;;;;;;;;;;-1.54;100.00;101367.31;5030793;28;19964;-55
2023/01/29 07:05:35;;;;;;;;;;;;;;;-1.53;100.00;101366.50;5039773;28;19964;-56
2023/01/29 07:08:00;;;;;;;;;;;;;;;-1.53;100.00;101374.06;5032886;28;19963;-56
2023/01/29 07:10:25;;;;;;;;;;;;;;;-1.57;100.00;101375.69;5022365;28;19925;-56
2023/01/29 07:12:50;;;;;;;;;;;;;;;-1.50;100.00;101376.63;5032555;28;19921;-56
2023/01/29 07:15:19;;;;;;;;;;;;;;;-1.45;100.00;101385.13;5047649;28;20348;-56
2023/01/29 07:17:54;;;;;;;;;;;;;;;-1.42;100.00;101391.91;5051770;28;19916;-56
2023/01/29 07:20:20;;;;;;;;;;;;;;;-1.49;100.00;101389.28;5035328;28;19927;-56
2023/01/29 07:22:45;;;;;;;;;;;;;;;-1.52;100.00;101399.31;5035831;28;19918;-58
2023/01/29 07:25:10;;;;;;;;;;;;;;;-1.59;100.00;101401.72;5042772;28;19928;-56
2023/01/29 07:27:35;;;;;;;;;;;;;;;-1.63;100.00;101406.69;5043713;28;19932;-56
2023/01/29 07:30:00;;;;;;;;;;;;;;;-1.54;100.00;101413.59;5047192;28;20347;-56
2023/01/29 07:32:27;;;;;;;;;;;;;;;-1.47;100.00;101414.53;5033850;28;19931;-55
2023/01/29 07:34:52;;;;;;;;;;;;;;;-1.53;100.00;101419.50;5033670;28;20011;-56
2023/01/29 07:37:17;;;;;;;;;;;;;;;-1.44;100.00;101419.63;5032300;28;19963;-55
2023/01/29 07:39:43;;;;;;;;;;;;;;;-1.41;100.00;101417.16;5051675;28;20043;-55
2023/01/29 07:42:08;;;;;;;;;;;;;;;-1.35;100.00;101416.44;5031879;28;19944;-55
2023/01/29 07:44:33;;;;;;;;;;;;;;;-1.32;100.00;101416.47;5046979;28;19916;-56
2023/01/29 07:46:58;;;;;;;;;;;;;;;-1.21;100.00;101407.38;5051242;28;19924;-55
2023/01/29 07:49:23;;;;;;;;;;;;;;;-1.16;100.00;101404.91;5051825;28;19917;-56
2023/01/29 07:51:48;;;;;;;;;;;;;;;-1.12;100.00;101406.66;5033650;28;19928;-55
2023/01/29 07:54:14;;;;;;;;;;;;;;;-1.07;100.00;101394.09;5051283;28;19957;-56
2023/01/29 07:56:39;;;;;;;;;;;;;;;-1.10;100.00;101389.00;5051353;28;19920;-56
2023/01/29 07:59:04;;;;;;;;;;;;;;;-1.03;100.00;101380.69;5051339;28;19917;-55
2023/01/29 08:01:29;;;;;;;;;;;;;;;-0.96;100.00;101377.41;5030299;28;19979;-55
2023/01/29 08:03:54;;;;;;;;;;;;;;;-0.90;100.00;101374.97;5033452;28;19924;-55
2023/01/29 08:06:19;;;;;;;;;;;;;;;-0.83;100.00;101383.50;5052180;28;19924;-55
2023/01/29 08:08:44;;;;;;;;;;;;;;;-0.78;100.00;101389.47;5055350;28;19931;-55
2023/01/29 08:11:10;;;;;;;;;;;;;;;-0.61;100.00;101384.59;5044818;28;19925;-55
2023/01/29 08:13:35;;;;;;;;;;;;;;;-0.59;100.00;101384.63;5055054;28;20384;-56
2023/01/29 08:16:01;;;;;;;;;;;;;;;-0.47;100.00;101382.25;5044186;28;19921;-55
2023/01/29 08:18:27;;;;;;;;;;;;;;;-0.46;100.00;101386.47;5041514;28;19927;-56
2023/01/29 08:20:52;;;;;;;;;;;;;;;-0.54;100.00;101388.06;5044678;28;20011;-56
2023/01/29 08:23:17;;;;;;;;;;;;;;;-0.71;100.00;101408.06;5054028;28;20007;-56
2023/01/29 08:25:43;;;;;;;;;;;;;;;-0.66;100.00;101416.56;5055379;28;20050;-55
2023/01/29 08:28:08;;;;;;;;;;;;;;;-0.66;100.00;101414.88;5054523;28;19968;-56
2023/01/29 08:30:34;;;;;;;;;;;;;;;-0.58;100.00;101412.44;5045004;28;20423;-56
2023/01/29 08:32:59;;;;;;;;;;;;;;;-0.67;100.00;101403.06;5053655;28;19992;-56
2023/01/29 08:35:25;;;;;;;;;;;;;;;-0.60;100.00;101404.00;5055566;28;19920;-56
2023/01/29 08:38:00;;;;;;;;;;;;;;;-0.67;100.00;101392.09;5054588;28;20315;-56
2023/01/29 08:40:26;;;;;;;;;;;;;;;-0.53;100.00;101387.25;5026988;28;19928;-56
2023/01/29 08:42:51;;;;;;;;;;;;;;;-0.40;100.00;101378.94;5036859;28;19921;-56
2023/01/29 08:45:17;;;;;;;;;;;;;;;-0.36;100.00;101389.94;5055471;28;19921;-56
2023/01/29 08:47:44;;;;;;;;;;;;;;;-0.07;100.00;101389.44;5054609;28;20383;-56
2023/01/29 08:50:09;;;;;;;;;;;;;;;0.14;100.00;101397.22;5044164;28;19924;-55
2023/01/29 08:52:34;;;;;;;;;;;;;;;0.22;100.00;101399.81;5052340;28;19916;-56
2023/01/29 08:55:00;;;;;;;;;;;;;;;0.44;100.00;101410.13;5055128;28;20388;-55
2023/01/29 08:57:25;;;;;;;;;;;;;;;0.61;100.00;101420.41;5053490;28;19917;-55
2023/01/29 08:59:50;;;;;;;;;;;;;;;0.44;100.00;101407.59;5042225;28;20284;-56
2023/01/29 09:02:15;;;;;;;;;;;;;;;0.55;100.00;101397.56;5042975;28;19920;-56
2023/01/29 09:04:40;;;;;;;;;;;;;;;0.63;100.00;101411.13;5054846;28;20399;-56
2023/01/29 09:07:05;;;;;;;;;;;;;;;0.32;100.00;101409.19;5053706;28;19970;-56
2023/01/29 09:09:30;;;;;;;;;;;;;;;0.29;100.00;101410.84;5054901;28;20294;-56
2023/01/29 09:11:56;;;;;;;;;;;;;;;0.06;100.00;101416.53;5042393;28;19924;-56
2023/01/29 09:14:21;;;;;;;;;;;;;;;-0.18;100.00;101417.97;5054543;28;20299;-55
2023/01/29 09:16:46;;;;;;;;;;;;;;;-0.28;100.00;101415.34;5053926;28;19924;-56
2023/01/29 09:19:11;;;;;;;;;;;;;;;-0.13;100.00;101417.19;5054433;28;20320;-55
2023/01/29 09:21:36;;;;;;;;;;;;;;;-0.02;100.00;101416.44;5042991;28;19924;-56
2023/01/29 09:24:02;;;;;;;;;;;;;;;0.20;100.00;101428.47;5053902;28;20015;-56
2023/01/29 09:26:27;;;;;;;;;;;;;;;0.07;100.00;101435.09;5053880;28;19916;-58
2023/01/29 09:28:52;;;;;;;;;;;;;;;0.02;100.00;101439.28;5054062;28;20117;-56
2023/01/29 09:31:17;;;;;;;;;;;;;;;-0.15;100.00;101446.66;5043186;28;19921;-56
2023/01/29 09:33:42;;;;;;;;;;;;;;;-0.22;100.00;101438.16;5035764;28;20346;-56
2023/01/29 09:36:07;;;;;;;;;;;;;;;-0.26;100.00;101447.41;5053487;28;19921;-56
2023/01/29 09:38:33;;;;;;;;;;;;;;;-0.10;100.00;101448.44;5053926;28;19948;-56
2023/01/29 09:41:18;;;;;;;;;;;;;;;-0.25;100.00;101440.66;5043274;28;19920;-55
2023/01/29 09:43:48;;;;;;;;;;;;;;;-0.04;100.00;101445.97;5037555;28;19924;-56
2023/01/29 09:46:23;;;;;;;;;;;;;;;0.06;100.00;101444.34;5053618;28;19962;-56
2023/01/29 09:48:54;;;;;;;;;;;;;;;0.11;100.00;101447.81;5053906;28;20368;-55
2023/01/29 09:51:32;;;;;;;;;;;;;;;0.14;100.00;101447.00;5042350;28;19944;-56
2023/01/29 09:54:04;;;;;;;;;;;;;;;0.18;100.00;101436.06;5035772;28;20003;-56
2023/01/29 09:56:29;;;;;;;;;;;;;;;0.03;100.00;101451.94;5053732;28;20368;-56
2023/01/29 09:58:58;;;;;;;;;;;;;;;-0.01;100.00;101456.09;5040364;28;19963;-55
2023/01/29 10:01:23;;;;;;;;;;;;;;;-0.17;100.00;101444.97;5005902;28;19921;-56
2023/01/29 10:04:03;;;;;;;;;;;;;;;-0.23;100.00;101442.34;5047789;28;19924;-57
2023/01/29 10:06:47;;;;;;;;;;;;;;;-0.09;100.00;101436.63;5053302;28;19917;-55
2023/01/29 10:09:30;;;;;;;;;;;;;;;-0.02;100.00;101430.78;5053352;28;20003;-56
2023/01/29 10:12:01;;;;;;;;;;;;;;;0.11;100.00;101426.69;5041612;28;19921;-56
2023/01/29 10:14:37;;;;;;;;;;;;;;;0.17;100.00;101431.00;5053453;28;19921;-56
2023/01/29 10:17:11;;;;;;;;;;;;;;;0.35;100.00;101433.69;5053038;28;19927;-56
2023/01/29 10:19:59;;;;;;;;;;;;;;;0.35;100.00;101437.88;5053525;28;20112;-56
2023/01/29 10:22:53;;;;;;;;;;;;;;;0.40;100.00;101433.75;5009309;28;19925;-56
2023/01/29 10:25:20;;;;;;;;;;;;;;;-0.19;100.00;101428.06;5014907;28;20351;-55
2023/01/29 10:27:50;;;;;;;;;;;;;;;-0.01;100.00;101420.69;5052924;28;19958;-56
2023/01/29 10:30:35;;;;;;;;;;;;;;;0.06;100.00;101405.56;5042283;28;19916;-55
2023/01/29 10:33:04;;;;;;;;;;;;;;;0.40;100.00;101393.25;5051352;28;20011;-56
2023/01/29 10:35:31;;;;;;;;;;;;;;;0.64;100.00;101383.31;5035203;28;20294;-55
2023/01/29 10:38:01;;;;;;;;;;;;;;;0.74;100.00;101371.53;5052357;28;19948;-56
2023/01/29 10:40:32;;;;;;;;;;;;;;;1.03;100.00;101375.94;5034835;28;20323;-55
2023/01/29 10:43:01;;;;;;;;;;;;;;;1.05;100.00;101370.88;5042321;28;20341;-55
2023/01/29 10:45:39;;;;;;;;;;;;;;;1.02;100.00;101358.16;5052794;28;20373;-55
2023/01/29 10:48:18;;;;;;;;;;;;;;;0.92;100.00;101352.22;5034284;28;19917;-54
2023/01/29 10:50:49;;;;;;;;;;;;;;;0.94;100.00;101348.88;5042322;28;19991;-55
2023/01/29 10:53:30;;;;;;;;;;;;;;;1.16;100.00;101345.59;5051637;28;19917;-54
2023/01/29 10:55:59;;;;;;;;;;;;;;;1.47;100.00;101345.72;5033516;28;20351;-54
2023/01/29 10:58:40;;;;;;;;;;;;;;;1.84;98.49;101338.19;5043637;28;19960;-55
2023/01/29 11:01:06;;;;;;;;;;;;;;;2.01;96.57;101333.97;5022321;28;19920;-54
2023/01/29 11:03:32;;;;;;;;;;;;;;;1.92;94.11;101324.66;5031135;28;20367;-55
2023/01/29 11:06:01;;;;;;;;;;;;;;;2.14;94.00;101323.81;5031982;28;19921;-55
2023/01/29 11:08:30;;;;;;;;;;;;;;;2.16;94.22;101317.91;5052601;28;19943;-56
2023/01/29 11:11:16;;;;;;;;;;;;;;;2.09;94.11;101311.13;5021031;28;19960;-56
2023/01/29 11:13:51;;;;;;;;;;;;;;;2.22;93.32;101317.91;5029672;28;19921;-55
2023/01/29 11:16:16;;;;;;;;;;;;;;;2.03;92.05;101311.97;5052008;28;19923;-55
2023/01/29 11:18:55;;;;;;;;;;;;;;;1.94;92.45;101304.34;5052363;28;20012;-55
2023/01/29 11:21:20;;;;;;;;;;;;;;;2.06;92.38;101298.41;5041281;28;20007;-55
2023/01/29 11:23:45;;;;;;;;;;;;;;;2.02;91.77;101296.72;5051130;28;20367;-56
2023/01/29 11:26:12;;;;;;;;;;;;;;;2.15;92.85;101300.97;5030181;28;19921;-55
2023/01/29 11:28:39;;;;;;;;;;;;;;;2.02;92.50;101302.69;5050446;28;19972;-56
2023/01/29 11:31:21;;;;;;;;;;;;;;;1.68;94.39;101306.88;5020757;28;20435;-55
2023/01/29 11:33:47;;;;;;;;;;;;;;;1.70;96.82;101306.03;5039226;28;20296;-56
2023/01/29 11:36:19;;;;;;;;;;;;;;;1.69;96.01;101300.94;5050863;28;19931;-55
2023/01/29 11:38:44;;;;;;;;;;;;;;;1.81;96.37;101297.56;5039905;28;20265;-55
2023/01/29 11:41:17;;;;;;;;;;;;;;;1.85;94.22;101291.63;5039674;28;19935;-55
2023/01/29 11:43:42;;;;;;;;;;;;;;;1.71;95.92;101291.63;5033991;28;20417;-56
2023/01/29 11:46:12;;;;;;;;;;;;;;;1.71;95.55;101289.97;5051082;28;19958;-55
2023/01/29 11:48:42;;;;;;;;;;;;;;;1.64;96.12;101295.00;5033915;28;19967;-55
2023/01/29 11:51:09;;;;;;;;;;;;;;;1.75;97.32;101289.13;5023048;28;19932;-55
2023/01/29 11:53:39;;;;;;;;;;;;;;;1.94;96.93;101282.34;5048654;28;19924;-56
2023/01/29 11:56:17;;;;;;;;;;;;;;;1.94;95.46;101284.88;5050650;28;19917;-55
2023/01/29 11:58:43;;;;;;;;;;;;;;;1.91;94.91;101279.81;5033841;28;19921;-55
2023/01/29 12:01:09;;;;;;;;;;;;;;;1.89;95.87;101273.06;5009931;28;19928;-55
2023/01/29 12:03:38;;;;;;;;;;;;;;;2.04;95.31;101257.81;5050490;28;19916;-55
2023/01/29 12:06:17;;;;;;;;;;;;;;;2.23;95.24;101251.03;5051607;28;19924;-56
2023/01/29 12:08:42;;;;;;;;;;;;;;;2.17;95.15;101243.44;5033422;28;20062;-56
2023/01/29 12:11:09;;;;;;;;;;;;;;;1.76;95.19;101242.59;5033524;28;20355;-55
2023/01/29 12:13:35;;;;;;;;;;;;;;;1.74;96.28;101241.75;5031655;28;19917;-56
2023/01/29 12:16:15;;;;;;;;;;;;;;;1.65;97.77;101236.69;5039990;28;20313;-55
2023/01/29 12:18:43;;;;;;;;;;;;;;;1.66;98.21;101227.38;5032819;28;19924;-55
2023/01/29 12:21:13;;;;;;;;;;;;;;;1.72;98.01;101229.91;5031179;28;19925;-55
2023/01/29 12:23:38;;;;;;;;;;;;;;;1.84;96.79;101221.47;5032488;28;20372;-55
2023/01/29 12:26:07;;;;;;;;;;;;;;;1.75;97.32;101214.72;5051085;28;20269;-55
2023/01/29 12:28:45;;;;;;;;;;;;;;;1.82;97.99;101205.38;5051482;28;20328;-57
2023/01/29 12:31:31;;;;;;;;;;;;;;;1.83;95.43;101207.91;5040533;28;19925;-54
2023/01/29 12:34:15;;;;;;;;;;;;;;;1.32;97.80;101214.69;5019975;28;19917;-54
2023/01/29 12:36:45;;;;;;;;;;;;;;;1.27;98.85;101215.50;5050299;28;20485;-54
2023/01/29 12:39:15;;;;;;;;;;;;;;;1.35;100.00;101210.44;5049985;28;20033;-55
2023/01/29 12:41:44;;;;;;;;;;;;;;;1.62;100.00;101196.09;5024774;28;20299;-54
2023/01/29 12:44:16;;;;;;;;;;;;;;;1.93;99.16;101193.53;5033071;28;20254;-55
2023/01/29 12:46:52;;;;;;;;;;;;;;;2.14;97.31;101185.03;5050757;28;19916;-55
2023/01/29 12:49:23;;;;;;;;;;;;;;;2.18;96.22;101181.63;5051299;28;19967;-56
2023/01/29 12:51:55;;;;;;;;;;;;;;;2.34;95.93;101176.53;5019521;28;19921;-55
2023/01/29 12:54:30;;;;;;;;;;;;;;;2.38;95.95;101168.03;5032821;28;20019;-55
2023/01/29 12:56:59;;;;;;;;;;;;;;;2.35;95.71;101163.81;5033539;28;20464;-55
2023/01/29 12:59:35;;;;;;;;;;;;;;;2.45;92.62;101168.88;5039793;28;19917;-55
2023/01/29 13:02:23;;;;;;;;;;;;;;;2.20;93.34;101167.25;5023280;28;20135;-56
2023/01/29 13:05:18;;;;;;;;;;;;;;;2.01;95.88;101174.06;5043730;28;19921;-55
2023/01/29 13:07:56;;;;;;;;;;;;;;;2.04;96.78;101161.38;4953631;28;19919;-55
2023/01/29 13:10:33;;;;;;;;;;;;;;;1.97;96.63;101157.16;4928169;28;19918;-55